Time;durP1;ratioP1;P1;durP2;ratioP2;P2;SDS_P1;SDS_P2;PMS_P1;PMS_P2;Temp;Humidity;BMP_temperature;BMP_pressure;BME280_temperature;BME280_humidity;BME280_pressure;Samples;Min_cycle;Max_cycle;Signal;HPM_P1;HPM_P2
2023/03/29 00:02:37;;;;;;;14.15;5.00;;;;;;;4.14;44.02;98345.38;10009299;29;20054;-77
2023/03/29 00:08:02;;;;;;;9.93;4.18;;;;;;;4.27;43.95;98350.88;10009140;29;20057;-76
2023/03/29 00:13:25;;;;;;;11.30;4.55;;;;;;;4.32;44.13;98347.97;9994617;29;20070;-76
2023/03/29 00:18:46;;;;;;;11.38;4.97;;;;;;;4.43;43.95;98343.44;10009070;29;20049;-77
2023/03/29 00:24:07;;;;;;;13.18;4.30;;;;;;;4.46;44.08;98337.59;10008592;29;20525;-76
2023/03/29 00:29:28;;;;;;;12.95;4.40;;;;;;;4.44;44.52;98334.66;9996291;29;20050;-77
2023/03/29 00:34:49;;;;;;;10.25;4.40;;;;;;;4.44;43.68;98339.41;9996034;29;20102;-77
2023/03/29 00:40:11;;;;;;;12.07;3.33;;;;;;;4.43;44.33;98338.66;10009364;29;20042;-76
2023/03/29 00:45:34;;;;;;;10.15;4.22;;;;;;;4.37;44.39;98334.56;10008185;29;20102;-76
2023/03/29 00:51:00;;;;;;;9.70;3.75;;;;;;;4.29;44.48;98328.97;10008121;29;20486;-76
2023/03/29 00:56:34;;;;;;;11.18;3.50;;;;;;;4.20;44.99;98319.09;9995705;29;20053;-76
2023/03/29 01:02:05;;;;;;;10.80;3.80;;;;;;;4.12;44.81;98321.06;10000523;29;20050;-76
2023/03/29 01:07:34;;;;;;;10.32;3.08;;;;;;;4.04;45.41;98311.94;9999783;29;20112;-76
2023/03/29 01:13:00;;;;;;;9.40;3.40;;;;;;;3.95;45.27;98313.13;10024197;29;20069;-76
2023/03/29 01:18:21;;;;;;;9.25;3.28;;;;;;;3.89;45.07;98304.25;10000337;29;20401;-76
2023/03/29 01:24:23;;;;;;;6.45;2.90;;;;;;;3.78;45.91;98298.22;10005701;29;20054;-76
2023/03/29 01:29:52;;;;;;;11.65;3.72;;;;;;;3.73;45.26;98311.59;10007186;29;20118;-76
2023/03/29 01:35:17;;;;;;;11.65;2.95;;;;;;;3.68;45.60;98300.69;9995029;29;20054;-77
2023/03/29 01:40:38;;;;;;;;;;;;;;;3.69;46.00;98307.69;9994625;29;20046;-77
2023/03/29 01:46:09;;;;;;;10.80;3.72;;;;;;;3.65;46.20;98296.22;9994341;29;19931;-76
2023/03/29 01:51:36;;;;;;;11.60;3.30;;;;;;;3.66;46.21;98292.94;9994485;29;20094;-76
2023/03/29 01:56:57;;;;;;;10.27;3.55;;;;;;;3.59;45.98;98279.81;9993970;29;20057;-76
2023/03/29 02:02:19;;;;;;;8.60;3.42;;;;;;;3.52;45.86;98276.94;10009456;29;20382;-76
2023/03/29 02:07:40;;;;;;;7.63;3.17;;;;;;;3.45;46.38;98264.53;10001182;29;20050;-76
2023/03/29 02:13:01;;;;;;;11.55;3.75;;;;;;;3.47;46.83;98264.00;10000805;29;20058;-77
2023/03/29 02:18:25;;;;;;;10.20;3.77;;;;;;;3.46;45.95;98260.50;10004533;29;20058;-76
2023/03/29 02:23:47;;;;;;;9.48;3.08;;;;;;;3.43;46.03;98239.50;9989734;29;20434;-76
2023/03/29 02:29:09;;;;;;;8.32;3.38;;;;;;;3.36;46.48;98240.13;9988321;29;20446;-79
2023/03/29 02:34:37;;;;;;;11.55;3.80;;;;;;;3.34;46.77;98239.94;9983723;29;20094;-76
2023/03/29 02:39:59;;;;;;;10.85;3.53;;;;;;;3.37;46.60;98231.31;9984604;29;20041;-79
2023/03/29 02:45:20;;;;;;;8.82;3.25;;;;;;;3.36;47.26;98226.34;9986657;29;20038;-79
2023/03/29 02:50:42;;;;;;;9.15;3.40;;;;;;;3.36;47.12;98224.31;9976969;29;20045;-79
2023/03/29 02:56:04;;;;;;;9.73;4.07;;;;;;;3.30;47.20;98218.19;9990527;29;20508;-76
2023/03/29 03:01:25;;;;;;;8.52;4.03;;;;;;;3.31;47.09;98216.16;10000878;29;20054;-79
2023/03/29 03:06:46;;;;;;;8.65;3.75;;;;;;;3.20;47.65;98214.41;9988357;29;20050;-79
2023/03/29 03:12:08;;;;;;;12.80;4.63;;;;;;;3.14;47.81;98206.22;9981096;29;20409;-77
2023/03/29 03:17:31;;;;;;;12.38;4.57;;;;;;;3.09;47.54;98204.34;9988124;29;20116;-77
2023/03/29 03:22:52;;;;;;;11.73;4.20;;;;;;;3.01;48.39;98209.00;9985005;29;20409;-77
2023/03/29 03:28:13;;;;;;;12.27;4.13;;;;;;;2.73;48.57;98195.03;10002067;29;20050;-78
2023/03/29 03:33:35;;;;;;;10.13;4.15;;;;;;;2.70;49.43;98196.84;9987180;29;20459;-77
2023/03/29 03:39:05;;;;;;;11.25;3.78;;;;;;;2.72;48.36;98190.78;9973397;29;20046;-77
2023/03/29 03:44:27;;;;;;;;;;;;;;;2.75;48.79;98193.22;9972419;29;20042;-77
2023/03/29 03:50:13;;;;;;;9.77;3.33;;;;;;;2.83;48.76;98205.09;9970775;29;19924;-77
2023/03/29 03:55:34;;;;;;;8.82;4.00;;;;;;;2.95;48.67;98189.06;9972087;29;20046;-78
2023/03/29 04:01:03;;;;;;;10.65;3.92;;;;;;;2.96;48.30;98196.06;9986483;29;20048;-77
2023/03/29 04:06:41;;;;;;;13.52;4.20;;;;;;;2.96;48.35;98196.06;9984687;29;20125;-77
2023/03/29 04:12:30;;;;;;;8.25;3.20;;;;;;;2.95;49.37;98193.84;9991418;29;20061;-77
2023/03/29 04:17:52;;;;;;;10.07;3.95;;;;;;;3.00;49.18;98207.53;10000006;29;20058;-77
2023/03/29 04:23:45;;;;;;;8.55;3.92;;;;;;;3.01;48.97;98214.53;10006827;29;20038;-77
2023/03/29 04:29:07;;;;;;;8.18;2.72;;;;;;;3.05;49.15;98198.38;10005763;29;20094;-77
2023/03/29 04:34:38;;;;;;;10.60;2.95;;;;;;;3.04;48.98;98191.38;10007521;29;20098;-78
2023/03/29 04:40:00;;;;;;;9.02;4.35;;;;;;;3.04;49.29;98188.63;10005531;29;20038;-77
2023/03/29 04:45:28;;;;;;;12.10;3.15;;;;;;;3.03;49.02;98184.41;9995975;29;20042;-78
2023/03/29 04:51:05;;;;;;;9.35;3.85;;;;;;;3.04;49.28;98185.88;10008418;29;20053;-82
2023/03/29 04:56:26;;;;;;;8.73;2.88;;;;;;;3.14;49.04;98197.22;10014270;29;20041;-80
2023/03/29 05:02:07;;;;;;;9.90;3.03;;;;;;;3.24;50.16;98192.72;10822408;23;20551;-77
2023/03/29 05:07:31;;;;;;;9.88;3.13;;;;;;;3.37;49.63;98189.91;10123771;29;20051;-77
2023/03/29 05:12:52;;;;;;;13.43;4.03;;;;;;;3.48;49.44;98190.97;10097448;29;20048;-78
2023/03/29 05:18:15;;;;;;;12.10;3.53;;;;;;;3.48;48.86;98188.22;10097383;29;20055;-77
2023/03/29 05:23:37;;;;;;;7.22;3.13;;;;;;;3.53;49.15;98179.06;10110271;29;20044;-78
2023/03/29 05:29:11;;;;;;;10.23;3.57;;;;;;;3.62;49.14;98184.84;10120107;29;20040;-78
2023/03/29 05:34:35;;;;;;;6.82;2.97;;;;;;;3.74;48.57;98177.03;10102020;29;20060;-78
2023/03/29 05:39:56;;;;;;;9.45;3.10;;;;;;;3.84;49.15;98175.28;10091915;29;20096;-77
2023/03/29 05:45:32;;;;;;;10.80;3.17;;;;;;;3.94;48.75;98178.31;10126697;29;20037;-77
2023/03/29 05:50:55;;;;;;;11.88;3.65;;;;;;;4.03;48.83;98175.81;10084986;29;20456;-78
2023/03/29 05:56:17;;;;;;;11.82;2.97;;;;;;;3.99;47.96;98158.88;10098656;29;20045;-77
2023/03/29 06:01:40;;;;;;;9.32;3.40;;;;;;;3.88;48.00;98152.88;10101275;29;20060;-77
2023/03/29 06:07:04;;;;;;;8.63;3.17;;;;;;;3.89;47.84;98148.84;10104135;29;20452;-77
2023/03/29 06:12:26;;;;;;;6.18;2.58;;;;;;;3.85;48.68;98156.72;10103392;29;20049;-77
2023/03/29 06:17:52;;;;;;;10.35;3.42;;;;;;;3.86;48.07;98155.41;10103903;29;20492;-77
2023/03/29 06:23:13;;;;;;;16.83;3.10;;;;;;;3.98;48.81;98156.66;10103881;29;20048;-77
2023/03/29 06:28:35;;;;;;;7.82;3.03;;;;;;;4.25;47.69;98157.97;10118017;29;20076;-78
2023/03/29 06:33:57;;;;;;;10.18;3.58;;;;;;;4.44;47.99;98163.25;10113523;29;20064;-78
2023/03/29 06:39:36;;;;;;;10.68;3.28;;;;;;;4.50;47.58;98160.31;10083335;29;20404;-79
2023/03/29 06:45:14;;;;;;;8.32;2.97;;;;;;;4.73;47.85;98155.69;10068374;29;20049;-78
2023/03/29 06:50:40;;;;;;;6.60;2.85;;;;;;;4.98;47.56;98161.50;10088156;29;20053;-80
2023/03/29 06:56:08;;;;;;;11.20;3.08;;;;;;;5.08;46.55;98154.16;10088147;29;20489;-80
2023/03/29 07:01:33;;;;;;;13.43;3.75;;;;;;;5.33;45.63;98165.50;10111922;29;20049;-81
2023/03/29 07:07:52;;;;;;;6.40;2.80;;;;;;;5.52;45.19;98156.13;10136684;29;20064;-80
2023/03/29 07:13:20;;;;;;;5.93;2.53;;;;;;;5.82;45.65;98161.72;10139487;29;20048;-80
2023/03/29 07:18:43;;;;;;;8.63;3.30;;;;;;;5.92;44.94;98157.13;10131645;29;20088;-80
2023/03/29 07:24:13;;;;;;;10.32;3.22;;;;;;;6.09;44.70;98148.28;10141643;29;20032;-80
2023/03/29 07:29:36;;;;;;;9.95;2.42;;;;;;;6.76;44.92;98151.50;10167519;29;20033;-80
2023/03/29 07:34:57;;;;;;;11.35;2.90;;;;;;;7.14;44.18;98154.13;10128136;29;20044;-80
2023/03/29 07:40:29;;;;;;;7.50;2.40;;;;;;;7.27;43.07;98157.97;10156773;29;20061;-80
2023/03/29 07:45:51;;;;;;;9.05;2.08;;;;;;;7.36;43.72;98160.88;10155362;29;20104;-80
2023/03/29 07:51:13;;;;;;;10.38;2.17;;;;;;;7.52;42.63;98150.41;10143643;29;20061;-80
2023/03/29 07:56:41;;;;;;;4.35;1.73;;;;;;;7.60;43.10;98153.88;10143220;29;20122;-80
2023/03/29 08:02:11;;;;;;;6.22;1.92;;;;;;;7.30;42.84;98145.72;10143702;29;20048;-80
2023/03/29 08:07:41;;;;;;;4.57;1.73;;;;;;;7.13;43.51;98146.34;10133462;29;20100;-81
2023/03/29 08:13:23;;;;;;;4.35;1.00;;;;;;;6.84;44.36;98140.34;10157029;29;20060;-80
2023/03/29 08:19:04;;;;;;;4.43;1.45;;;;;;;6.71;44.64;98143.38;10157941;29;20033;-80
2023/03/29 08:24:45;;;;;;;1.88;0.80;;;;;;;6.65;44.62;98156.69;10142219;29;20076;-81
2023/03/29 08:30:08;;;;;;;3.10;1.15;;;;;;;6.45;45.15;98161.16;10121551;29;20048;-80
2023/03/29 08:35:31;;;;;;;4.28;1.30;;;;;;;6.29;46.42;98152.88;10136322;29;20077;-80
2023/03/29 08:41:21;;;;;;;5.05;1.23;;;;;;;6.61;46.77;98132.09;10104545;29;20051;-79
2023/03/29 08:59:31;;;;;;;3.75;1.30;;;;;;;6.32;53.20;98170.44;10905416;23;20080;-80
2023/03/29 09:05:03;;;;;;;4.55;1.30;;;;;;;5.90;50.58;98181.91;10119734;29;20554;-79
2023/03/29 09:10:39;;;;;;;1.95;0.95;;;;;;;5.57;53.18;98160.75;10107784;29;20052;-79
2023/03/29 09:16:38;;;;;;;3.88;1.40;;;;;;;5.40;58.12;98153.72;10103396;29;20048;-79
2023/03/29 09:22:03;;;;;;;3.13;1.15;;;;;;;5.75;57.36;98137.50;10077566;29;20079;-79
2023/03/29 09:28:03;;;;;;;3.67;1.27;;;;;;;5.80;58.47;98128.28;10129705;29;20052;-79
2023/03/29 09:34:02;;;;;;;3.88;1.77;;;;;;;6.20;56.99;98130.53;10123610;29;20055;-78
2023/03/29 09:52:11;;;;;;;5.90;1.55;;;;;;;7.87;53.92;98131.84;11645833;23;20064;-80
2023/03/29 10:29:19;;;;;;;4.53;1.92;;;;;;;7.77;54.61;98096.91;9990885;29;20054;-75
2023/03/29 10:34:40;;;;;;;5.68;1.67;;;;;;;8.10;54.42;98078.81;9975146;29;20126;-75
2023/03/29 10:40:05;;;;;;;5.60;2.00;;;;;;;8.07;53.73;98082.75;9963075;29;20053;-75
2023/03/29 10:45:32;;;;;;;4.32;2.10;;;;;;;8.32;53.76;98085.47;9962106;29;20054;-75
2023/03/29 10:50:56;;;;;;;6.03;2.28;;;;;;;8.15;53.65;98069.50;9975459;29;20134;-78
2023/03/29 10:56:40;;;;;;;4.27;1.70;;;;;;;8.37;53.42;98065.03;9963190;29;20433;-76
2023/03/29 11:02:01;;;;;;;6.10;1.90;;;;;;;8.60;53.56;98067.59;9955021;29;20314;-75
2023/03/29 11:07:55;;;;;;;5.35;2.03;;;;;;;9.19;52.77;98063.88;9987804;29;20284;-78
2023/03/29 11:13:20;;;;;;;4.22;2.47;;;;;;;9.62;51.86;98067.13;9962289;29;20058;-78
2023/03/29 11:18:59;;;;;;;5.80;2.08;;;;;;;9.67;51.08;98055.72;9979672;29;20046;-78
2023/03/29 11:30:44;;;;;;;4.22;1.95;;;;;;;11.05;50.45;98051.09;10181799;23;20463;-77
2023/03/29 11:36:22;;;;;;;4.30;2.20;;;;;;;11.21;48.85;98036.81;10095019;29;20053;-77
2023/03/29 11:41:46;;;;;;;5.32;2.28;;;;;;;11.00;49.20;98035.41;10095315;29;20064;-77
2023/03/29 11:47:13;;;;;;;4.60;1.98;;;;;;;10.69;48.62;98034.56;10083998;29;20048;-77
2023/03/29 11:52:39;;;;;;;3.78;2.20;;;;;;;10.52;49.03;98022.25;11813217;23;20820;-81
2023/03/29 11:58:14;;;;;;;5.72;2.45;;;;;;;10.63;49.27;98009.00;10105655;29;20056;-80
2023/03/29 12:03:38;;;;;;;6.10;2.03;;;;;;;10.56;48.91;98000.19;10085210;29;20085;-80
2023/03/29 12:09:37;;;;;;;4.53;2.50;;;;;;;10.49;48.44;98000.34;10106769;29;20053;-79
2023/03/29 12:15:06;;;;;;;4.65;2.10;;;;;;;10.44;48.17;97982.59;10088188;29;20073;-79
2023/03/29 12:21:08;;;;;;;5.22;2.33;;;;;;;11.18;48.23;97980.78;10091204;29;20408;-80
2023/03/29 12:26:48;;;;;;;4.65;2.25;;;;;;;11.31;46.14;97990.75;10062348;29;20048;-79
2023/03/29 12:32:15;;;;;;;5.22;1.90;;;;;;;11.24;47.24;97979.75;10100798;29;20480;-79
2023/03/29 12:38:09;;;;;;;4.82;2.40;;;;;;;11.29;46.38;97979.44;10097797;29;20416;-79
2023/03/29 12:44:31;;;;;;;6.13;2.72;;;;;;;11.12;46.75;97963.59;10110382;29;20108;-79
2023/03/29 12:50:27;;;;;;;5.30;2.60;;;;;;;11.15;47.02;97976.38;10078204;29;20068;-79
2023/03/29 12:56:02;;;;;;;6.32;2.70;;;;;;;11.26;46.26;97966.63;10082171;29;20077;-79
2023/03/29 13:01:27;;;;;;;7.90;2.33;;;;;;;11.54;46.41;97953.84;10098781;29;20045;-79
2023/03/29 13:07:01;;;;;;;6.57;2.60;;;;;;;12.03;45.70;97951.47;10042056;29;20049;-79
2023/03/29 13:12:45;;;;;;;4.22;2.20;;;;;;;12.59;43.86;97939.66;10067402;29;20065;-79
2023/03/29 13:18:44;;;;;;;3.92;2.40;;;;;;;12.83;44.10;97932.00;10035749;29;20053;-80
2023/03/29 13:24:27;;;;;;;6.53;2.55;;;;;;;12.70;42.87;97930.53;10030252;29;20042;-79
2023/03/29 13:29:54;;;;;;;6.18;2.80;;;;;;;12.47;43.47;97922.09;10038898;29;20045;-79
2023/03/29 13:35:36;;;;;;;5.65;2.90;;;;;;;12.56;43.85;97924.06;10040839;29;20049;-79
2023/03/29 13:41:04;;;;;;;4.82;2.25;;;;;;;12.17;43.74;97918.84;10050565;29;20120;-78
2023/03/29 13:46:37;;;;;;;6.32;2.25;;;;;;;12.36;44.32;97917.19;10029108;29;20049;-80
2023/03/29 13:52:15;;;;;;;7.65;2.45;;;;;;;12.37;43.41;97922.19;10029653;29;20385;-77
2023/03/29 13:57:42;;;;;;;3.70;2.13;;;;;;;12.16;43.94;97899.81;10542858;27;1304612;-78
2023/03/29 14:03:09;;;;;;;6.50;2.70;;;;;;;12.13;44.10;97901.78;10501253;28;20055;-79
2023/03/29 14:08:32;;;;;;;5.18;2.42;;;;;;;12.08;44.08;97905.66;10503480;28;20130;-78
2023/03/29 14:13:57;;;;;;;4.32;2.25;;;;;;;11.98;43.94;97905.00;10516559;28;20043;-78
2023/03/29 14:19:24;;;;;;;5.25;2.20;;;;;;;11.66;44.22;97881.94;10515720;28;20040;-79
2023/03/29 14:24:51;;;;;;;3.65;2.08;;;;;;;11.62;44.83;97873.31;10515448;28;20036;-79
2023/03/29 14:30:20;;;;;;;4.50;2.05;;;;;;;11.66;44.79;97870.03;10501752;28;20043;-78
2023/03/29 14:35:41;;;;;;;7.68;2.42;;;;;;;11.73;44.81;97863.50;10499087;28;20047;-77
2023/03/29 14:41:03;;;;;;;3.45;1.95;;;;;;;11.65;44.67;97860.91;10513930;28;20036;-78
2023/03/29 14:46:24;;;;;;;5.88;2.00;;;;;;;11.56;45.10;97870.09;10511630;28;20059;-77
2023/03/29 14:51:45;;;;;;;3.78;2.30;;;;;;;11.70;44.92;97864.72;10513314;28;20047;-78
2023/03/29 14:57:07;;;;;;;4.93;2.15;;;;;;;11.67;44.97;97869.44;10499520;28;20052;-78
2023/03/29 15:02:29;;;;;;;5.85;2.05;;;;;;;11.84;45.04;97864.91;10494782;28;20066;-77
2023/03/29 15:07:54;;;;;;;3.90;1.98;;;;;;;11.84;44.85;97867.72;10447371;28;20045;-77
2023/03/29 15:13:18;;;;;;;4.47;2.05;;;;;;;11.67;44.85;97863.09;10441606;28;20098;-77
2023/03/29 15:18:39;;;;;;;5.65;2.70;;;;;;;11.45;44.76;97860.31;10458928;28;20048;-77
2023/03/29 15:36:32;;;;;;;4.15;2.05;;;;;;;11.16;45.77;97840.94;11830959;24;22576;-80
2023/03/29 15:41:56;;;;;;;5.10;2.20;;;;;;;10.97;45.92;97848.69;9818064;30;20044;-84
2023/03/29 15:47:17;;;;;;;6.07;2.33;;;;;;;10.92;46.17;97836.53;9804964;30;20124;-80
2023/03/29 15:52:45;;;;;;;4.82;1.95;;;;;;;10.92;46.44;97822.56;9823817;30;20028;-83
2023/03/29 15:58:12;;;;;;;5.28;2.40;;;;;;;10.89;47.13;97835.66;9831890;30;20056;-80
2023/03/29 16:03:34;;;;;;;6.65;3.45;;;;;;;10.75;46.71;97820.00;9830250;30;20063;-79
2023/03/29 16:08:58;;;;;;;6.90;3.40;;;;;;;10.65;46.99;97805.38;9834813;30;20048;-79
2023/03/29 16:14:26;;;;;;;;;;;;;;;10.59;48.09;97803.63;9790790;30;20056;-79
2023/03/29 16:19:47;;;;;;;6.95;2.95;;;;;;;10.62;47.99;97806.56;9761732;30;19933;-77
2023/03/29 16:25:12;;;;;;;6.53;2.90;;;;;;;10.52;48.02;97810.13;9757493;30;20060;-77
2023/03/29 16:30:34;;;;;;;7.03;3.53;;;;;;;10.47;47.98;97805.56;9763944;30;20057;-76
2023/03/29 16:35:55;;;;;;;5.47;3.05;;;;;;;10.45;48.20;97799.88;9754799;30;20097;-76
2023/03/29 16:41:17;;;;;;;10.10;3.53;;;;;;;10.45;48.47;97808.25;9756471;30;20061;-76
2023/03/29 16:46:38;;;;;;;6.28;3.53;;;;;;;10.49;48.27;97802.91;9757243;30;20064;-76
2023/03/29 16:51:59;;;;;;;7.05;3.00;;;;;;;10.47;48.48;97800.00;9756036;30;20053;-76
2023/03/29 16:57:20;;;;;;;6.15;3.17;;;;;;;10.50;48.16;97795.28;10207386;24;20430;-76
2023/03/29 17:02:42;;;;;;;8.15;3.28;;;;;;;10.50;48.62;97789.69;9780972;30;20049;-76
2023/03/29 17:08:03;;;;;;;8.90;3.97;;;;;;;10.40;48.79;97784.16;9777139;30;20052;-77
2023/03/29 17:13:25;;;;;;;8.18;3.85;;;;;;;10.31;49.09;97785.66;9777039;30;20086;-75
2023/03/29 17:18:59;;;;;;;7.45;3.63;;;;;;;10.26;49.55;97783.94;9781349;30;20504;-79
2023/03/29 17:24:20;;;;;;;6.40;3.65;;;;;;;10.20;49.40;97785.53;9764043;30;20060;-78
2023/03/29 17:29:41;;;;;;;8.43;4.13;;;;;;;10.09;50.47;97775.72;9763883;30;20049;-77
2023/03/29 17:35:02;;;;;;;10.65;4.50;;;;;;;10.01;49.73;97787.03;9763570;30;20049;-77
2023/03/29 17:40:23;;;;;;;6.22;3.80;;;;;;;9.98;50.65;97798.66;9762760;30;20455;-76
2023/03/29 17:45:45;;;;;;;9.70;4.30;;;;;;;9.95;50.05;97794.25;9750776;30;20084;-76
2023/03/29 17:51:12;;;;;;;10.00;4.97;;;;;;;9.88;50.52;97790.31;9740656;30;20079;-79
2023/03/29 17:56:34;;;;;;;15.40;5.07;;;;;;;9.80;51.15;97795.31;9778483;30;20131;-79
2023/03/29 18:01:56;;;;;;;16.00;6.63;;;;;;;9.75;50.75;97796.34;9764219;30;20057;-78
2023/03/29 18:07:17;;;;;;;21.52;10.88;;;;;;;9.70;51.34;97794.56;9751675;30;20053;-79
2023/03/29 18:12:38;;;;;;;20.98;7.63;;;;;;;9.56;51.23;97797.09;9751934;30;20049;-78
2023/03/29 18:24:15;;;;;;;13.63;7.20;;;;;;;9.26;52.02;97803.22;9772005;28;20083;-76
2023/03/29 18:29:36;;;;;;;14.20;8.45;;;;;;;9.18;52.95;97795.03;9760870;30;20507;-78
2023/03/29 18:34:57;;;;;;;20.30;9.82;;;;;;;9.13;53.13;97804.38;9773105;30;20126;-77
2023/03/29 18:40:23;;;;;;;26.20;11.55;;;;;;;9.22;53.07;97803.66;9762203;30;20055;-77
2023/03/29 18:45:44;;;;;;;25.20;11.18;;;;;;;9.33;53.12;97816.28;9767447;30;20060;-77
2023/03/29 18:51:06;;;;;;;18.58;8.93;;;;;;;9.38;53.54;97818.78;9770505;30;20048;-77
2023/03/29 18:56:28;;;;;;;14.40;8.20;;;;;;;9.49;53.95;97830.69;9803501;30;20056;-75
2023/03/29 19:01:48;;;;;;;13.35;6.88;;;;;;;9.53;53.38;97819.81;9815198;30;20070;-77
2023/03/29 19:07:09;;;;;;;10.27;5.90;;;;;;;9.55;53.37;97831.09;9778852;30;20045;-77
2023/03/29 19:12:32;;;;;;;10.93;5.75;;;;;;;9.55;53.88;97826.25;9791298;30;20521;-77
2023/03/29 19:17:53;;;;;;;11.35;5.88;;;;;;;9.55;54.20;97822.75;9791265;30;20053;-77
2023/03/29 19:23:14;;;;;;;11.30;5.57;;;;;;;9.55;54.31;97823.47;9790843;30;20144;-77
2023/03/29 19:28:35;;;;;;;9.45;4.57;;;;;;;9.56;54.53;97827.75;9790982;30;20052;-77
2023/03/29 19:33:56;;;;;;;8.35;4.72;;;;;;;9.54;54.69;97822.00;9790290;30;20157;-76
2023/03/29 19:39:17;;;;;;;12.52;5.38;;;;;;;9.57;54.84;97828.47;9789045;30;20048;-76
2023/03/29 19:44:37;;;;;;;12.88;4.88;;;;;;;9.51;55.57;97825.25;9788690;30;20044;-76
2023/03/29 19:49:58;;;;;;;9.95;5.28;;;;;;;9.44;55.87;97818.47;9776289;30;20087;-76
2023/03/29 19:55:20;;;;;;;10.23;4.72;;;;;;;9.35;55.93;97810.84;9788448;30;20076;-76
2023/03/29 20:00:41;;;;;;;9.32;4.15;;;;;;;9.26;56.44;97806.75;9787046;30;20518;-76
2023/03/29 20:06:02;;;;;;;8.20;4.03;;;;;;;9.22;57.25;97803.66;9797260;30;20106;-76
2023/03/29 20:11:23;;;;;;;8.18;4.13;;;;;;;9.14;57.49;97794.72;9788824;30;20049;-76
2023/03/29 20:16:45;;;;;;;8.43;3.42;;;;;;;9.08;57.57;97781.09;9789143;30;20052;-76
2023/03/29 20:22:06;;;;;;;6.35;4.03;;;;;;;9.02;57.74;97771.53;9777200;30;20064;-76
2023/03/29 20:27:28;;;;;;;8.98;3.75;;;;;;;8.95;57.84;97778.72;9788943;30;20457;-75
2023/03/29 20:32:49;;;;;;;7.35;3.88;;;;;;;8.88;57.85;97769.19;9788681;30;20045;-77
2023/03/29 20:38:10;;;;;;;9.55;4.20;;;;;;;8.83;58.19;97753.50;9788406;30;20045;-76
2023/03/29 20:43:36;;;;;;;8.95;4.47;;;;;;;8.78;58.75;97762.13;9788829;30;20072;-76
2023/03/29 20:49:04;;;;;;;8.95;4.07;;;;;;;8.68;58.75;97753.00;9788147;30;20079;-76
2023/03/29 20:54:25;;;;;;;8.25;3.90;;;;;;;8.57;59.28;97740.41;9775317;30;20045;-76
2023/03/29 20:59:47;;;;;;;9.52;4.80;;;;;;;8.52;60.07;97741.41;9786687;30;20129;-76
2023/03/29 21:05:10;;;;;;;8.95;3.85;;;;;;;8.47;59.44;97745.19;9785820;30;20126;-76
2023/03/29 21:10:31;;;;;;;8.50;4.28;;;;;;;8.44;59.95;97733.19;9785576;30;20076;-77
2023/03/29 21:15:52;;;;;;;7.97;4.03;;;;;;;8.41;60.59;97733.63;9783778;30;20091;-76
2023/03/29 21:21:13;;;;;;;8.05;3.88;;;;;;;8.49;60.66;97725.88;9798997;30;20122;-77
2023/03/29 21:26:34;;;;;;;7.75;3.83;;;;;;;8.59;60.61;97715.53;9785733;30;20165;-76
2023/03/29 21:31:55;;;;;;;7.97;4.18;;;;;;;8.67;61.42;97716.09;9785492;30;20139;-76
2023/03/29 21:37:16;;;;;;;8.40;4.03;;;;;;;8.74;61.01;97706.91;9785258;30;20442;-76
2023/03/29 21:42:37;;;;;;;7.85;4.13;;;;;;;8.81;61.02;97711.59;9785727;30;20056;-76
2023/03/29 21:47:58;;;;;;;7.28;4.03;;;;;;;8.85;60.79;97700.75;9772823;30;20059;-77
2023/03/29 21:53:18;;;;;;;7.38;3.90;;;;;;;8.89;61.02;97697.56;9785416;30;20052;-76
2023/03/29 21:58:39;;;;;;;7.45;3.63;;;;;;;8.95;61.50;97694.47;9785363;30;20072;-76
2023/03/29 22:04:00;;;;;;;7.78;3.85;;;;;;;8.99;61.32;97686.41;9785416;30;20076;-76
2023/03/29 22:09:21;;;;;;;7.50;3.80;;;;;;;9.01;61.50;97681.00;9774237;30;20523;-76
2023/03/29 22:14:42;;;;;;;7.63;4.10;;;;;;;9.05;61.12;97681.28;9775554;30;20060;-76
2023/03/29 22:20:10;;;;;;;9.70;3.55;;;;;;;9.04;61.44;97674.97;9791276;30;20424;-76
2023/03/29 22:25:30;;;;;;;7.93;3.67;;;;;;;9.06;61.50;97672.31;9792490;30;20466;-76
2023/03/29 22:30:51;;;;;;;6.65;3.53;;;;;;;9.05;61.34;97662.50;9803660;30;20049;-76
2023/03/29 22:36:16;;;;;;;8.23;3.65;;;;;;;8.98;61.21;97660.63;9791098;30;20084;-76
2023/03/29 22:41:37;;;;;;;6.78;3.85;;;;;;;8.82;61.81;97659.44;9802874;30;20072;-77
2023/03/29 22:46:58;;;;;;;6.45;3.60;;;;;;;8.73;61.69;97655.34;9790927;30;20059;-76
2023/03/29 22:52:20;;;;;;;6.35;3.65;;;;;;;8.68;61.90;97661.19;9790503;30;20073;-76
2023/03/29 22:57:40;;;;;;;6.80;3.97;;;;;;;8.64;61.81;97660.91;9778084;30;20049;-76
2023/03/29 23:03:02;;;;;;;8.77;3.67;;;;;;;8.59;62.16;97654.31;9790386;30;20138;-76
2023/03/29 23:08:23;;;;;;;6.35;4.45;;;;;;;8.56;62.88;97661.03;9789999;30;20508;-76
2023/03/29 23:13:47;;;;;;;8.68;4.47;;;;;;;8.57;62.29;97646.53;9789924;30;20072;-76
2023/03/29 23:19:09;;;;;;;6.75;4.57;;;;;;;8.56;62.74;97647.13;9789796;30;20073;-76
2023/03/29 23:24:30;;;;;;;6.10;3.78;;;;;;;8.63;62.68;97651.09;9789525;30;20064;-76
2023/03/29 23:29:51;;;;;;;6.45;3.75;;;;;;;8.67;62.57;97640.25;9789185;30;20459;-76
2023/03/29 23:35:14;;;;;;;9.60;3.97;;;;;;;8.71;62.89;97643.34;9765243;30;20049;-77
2023/03/29 23:40:36;;;;;;;8.60;3.80;;;;;;;8.72;62.54;97639.97;9765047;30;20053;-76
2023/03/29 23:45:58;;;;;;;6.25;3.53;;;;;;;8.76;62.69;97640.25;9764951;30;20053;-76
2023/03/29 23:51:26;;;;;;;9.90;4.22;;;;;;;8.81;62.69;97644.81;9764918;30;20061;-76
2023/03/29 23:56:47;;;;;;;7.85;4.00;;;;;;;8.86;62.42;97648.59;9764450;30;20083;-76
